createdAt,value
2023-04-09T00:02:58.717Z,7.75
2023-04-09T00:06:01.383Z,7.97
2023-04-09T00:09:03.850Z,7.88
2023-04-09T00:12:06.696Z,8.48
2023-04-09T00:15:17.763Z,7.65
2023-04-09T00:18:30.712Z,8.43
2023-04-09T00:21:33.411Z,8.13
2023-04-09T00:24:36.327Z,8.18
2023-04-09T00:27:38.736Z,8.02
2023-04-09T00:30:42.876Z,7.72
2023-04-09T00:33:45.612Z,7.18
2023-04-09T00:36:48.035Z,7.68
2023-04-09T00:39:50.795Z,8.15
2023-04-09T00:42:53.356Z,6.68
2023-04-09T00:45:57.474Z,8.45
2023-04-09T00:49:02.062Z,7.85
2023-04-09T00:52:06.808Z,8.68
2023-04-09T00:55:11.158Z,8.45
2023-04-09T00:58:14.366Z,8.25
2023-04-09T01:01:18.306Z,9.15
2023-04-09T01:04:22.152Z,8.27
2023-04-09T01:07:41.136Z,8.05
2023-04-09T01:10:48.613Z,7.68
2023-04-09T01:14:00.662Z,8.10
2023-04-09T01:17:07.587Z,7.57
2023-04-09T01:20:15.818Z,7.97
2023-04-09T01:23:26.829Z,7.90
2023-04-09T01:26:42.550Z,6.70
2023-04-09T01:29:52.616Z,9.15
2023-04-09T01:32:57.168Z,7.97
2023-04-09T01:36:01.661Z,8.25
2023-04-09T01:39:04.634Z,7.40
2023-04-09T01:42:11.211Z,7.57
2023-04-09T01:45:16.917Z,8.13
2023-04-09T01:48:20.803Z,7.32
2023-04-09T01:51:24.039Z,7.90
2023-04-09T01:54:26.820Z,8.30
2023-04-09T01:57:30.196Z,7.78
2023-04-09T02:00:39.028Z,8.32
2023-04-09T02:03:47.682Z,7.80
2023-04-09T02:06:58.970Z,7.70
2023-04-09T02:10:02.889Z,6.22
2023-04-09T02:13:06.905Z,8.32
2023-04-09T02:16:13.423Z,6.47
2023-04-09T02:19:16.530Z,7.55
2023-04-09T02:22:19.173Z,7.43
2023-04-09T02:25:24.761Z,7.72
2023-04-09T02:28:27.474Z,6.43
2023-04-09T02:31:31.700Z,7.22
2023-04-09T02:34:34.428Z,7.75
2023-04-09T02:37:36.913Z,7.22
2023-04-09T02:40:40.153Z,7.85
2023-04-09T02:43:42.688Z,7.80
2023-04-09T02:46:48.545Z,7.15
2023-04-09T02:49:51.121Z,7.97
2023-04-09T02:52:53.965Z,7.30
2023-04-09T02:55:56.723Z,6.88
2023-04-09T02:58:59.176Z,7.35
2023-04-09T03:02:03.241Z,7.18
2023-04-09T03:05:06.899Z,6.78
2023-04-09T03:11:11.847Z,6.65
2023-04-09T03:14:14.281Z,7.90
2023-04-09T03:17:18.165Z,6.65
2023-04-09T03:20:21.229Z,5.32
2023-04-09T03:23:24.246Z,6.85
2023-04-09T03:26:27.634Z,6.85
2023-04-09T03:29:30.623Z,6.80
2023-04-09T03:32:34.668Z,6.60
2023-04-09T03:35:37.234Z,5.28
2023-04-09T03:38:39.857Z,6.85
2023-04-09T03:41:42.571Z,7.13
2023-04-09T03:44:45.457Z,6.22
2023-04-09T03:47:49.294Z,5.07
2023-04-09T03:50:51.849Z,6.85
2023-04-09T03:53:54.396Z,6.72
2023-04-09T03:56:57.225Z,7.43
2023-04-09T03:59:59.836Z,7.55
2023-04-09T04:03:04.135Z,6.57
2023-04-09T04:06:07.280Z,7.25
2023-04-09T04:09:09.775Z,6.72
2023-04-09T04:12:12.285Z,6.78
2023-04-09T04:15:15.155Z,6.95
2023-04-09T04:18:19.500Z,6.18
2023-04-09T04:21:21.997Z,5.82
2023-04-09T04:24:24.863Z,6.53
2023-04-09T04:27:27.305Z,6.60
2023-04-09T04:30:30.091Z,4.85
2023-04-09T04:33:34.083Z,7.03
2023-04-09T04:36:38.009Z,5.85
2023-04-09T04:39:40.487Z,6.88
2023-04-09T04:42:43.072Z,6.80
2023-04-09T04:45:45.756Z,6.75
2023-04-09T04:48:50.192Z,6.97
2023-04-09T04:51:52.971Z,6.60
2023-04-09T04:54:55.564Z,5.18
2023-04-09T04:57:58.104Z,7.28
2023-04-09T05:01:01.473Z,5.82
2023-04-09T05:04:06.792Z,6.93
2023-04-09T05:07:09.197Z,6.72
2023-04-09T05:10:11.723Z,6.78
2023-04-09T05:13:14.248Z,6.07
2023-04-09T05:16:18.525Z,6.13
2023-04-09T05:19:22.609Z,6.32
2023-04-09T05:22:25.188Z,6.05
2023-04-09T05:25:27.944Z,5.75
2023-04-09T05:28:30.718Z,5.85
2023-04-09T05:31:33.235Z,5.97
2023-04-09T05:34:39.507Z,6.30
2023-04-09T05:37:41.948Z,5.72
2023-04-09T05:40:46.164Z,5.82
2023-04-09T05:43:48.667Z,6.35
2023-04-09T05:46:51.471Z,6.47
2023-04-09T05:49:55.947Z,6.30
2023-04-09T05:52:58.465Z,6.18
2023-04-09T05:56:01.027Z,6.75
2023-04-09T05:59:03.634Z,5.90
2023-04-09T06:02:06.825Z,6.68
2023-04-09T06:05:11.306Z,5.18
2023-04-09T06:08:14.132Z,6.88
2023-04-09T06:11:16.798Z,6.15
2023-04-09T06:14:19.500Z,6.70
2023-04-09T06:17:22.244Z,6.22
2023-04-09T06:20:26.244Z,6.00
2023-04-09T06:23:28.925Z,6.15
2023-04-09T06:26:31.920Z,6.13
2023-04-09T06:29:34.387Z,6.03
2023-04-09T06:32:46.856Z,6.20
2023-04-09T06:35:55.419Z,6.68
2023-04-09T06:38:59.157Z,7.43
2023-04-09T06:42:01.651Z,6.82
2023-04-09T06:45:08.867Z,7.50
2023-04-09T06:48:12.488Z,6.55
2023-04-09T06:54:18.916Z,6.70
2023-04-09T06:57:21.426Z,5.10
2023-04-09T07:00:24.068Z,6.75
2023-04-09T07:03:27.860Z,4.70
2023-04-09T07:06:32.029Z,6.57
2023-04-09T07:09:34.954Z,8.18
2023-04-09T07:12:37.671Z,7.22
2023-04-09T07:15:41.747Z,7.38
2023-04-09T07:18:45.047Z,7.20
2023-04-09T07:21:48.848Z,6.55
2023-04-09T07:24:54.451Z,6.10
2023-04-09T07:27:57.124Z,6.15
2023-04-09T07:31:01.528Z,7.03
2023-04-09T07:34:04.142Z,7.57
2023-04-09T07:37:08.014Z,7.40
2023-04-09T07:40:11.167Z,6.35
2023-04-09T07:43:13.742Z,6.30
2023-04-09T07:46:20.070Z,6.60
2023-04-09T07:49:22.551Z,6.88
2023-04-09T07:52:26.580Z,6.80
2023-04-09T07:55:29.475Z,7.65
2023-04-09T07:58:32.293Z,7.20
2023-04-09T08:01:34.920Z,6.70
2023-04-09T08:05:00.764Z,6.53
2023-04-09T08:08:07.261Z,7.05
2023-04-09T08:11:09.925Z,5.25
2023-04-09T08:14:13.765Z,7.00
2023-04-09T08:17:16.259Z,6.03
2023-04-09T08:20:18.777Z,6.60
2023-04-09T08:23:22.934Z,7.57
2023-04-09T08:26:25.648Z,6.35
2023-04-09T08:29:28.336Z,7.10
2023-04-09T08:32:30.992Z,6.47
2023-04-09T08:35:33.824Z,7.07
2023-04-09T08:38:38.174Z,7.22
2023-04-09T08:41:43.986Z,7.35
2023-04-09T08:44:46.995Z,6.97
2023-04-09T08:47:52.213Z,6.70
2023-04-09T08:50:54.867Z,7.00
2023-04-09T08:54:03.959Z,6.93
2023-04-09T08:57:07.268Z,7.50
2023-04-09T09:00:10.587Z,7.60
2023-04-09T09:03:14.236Z,6.78
2023-04-09T09:06:22.825Z,5.72
2023-04-09T09:09:26.952Z,7.20
2023-04-09T09:12:38.689Z,7.25
2023-04-09T09:15:41.325Z,6.65
2023-04-09T09:18:45.099Z,6.80
2023-04-09T09:21:56.678Z,6.55
2023-04-09T09:25:01.006Z,6.72
2023-04-09T09:28:09.034Z,6.78
2023-04-09T09:31:13.103Z,6.78
2023-04-09T09:34:16.597Z,6.55
2023-04-09T09:37:27.944Z,7.07
2023-04-09T09:40:32.016Z,6.35
2023-04-09T09:43:42.062Z,7.65
2023-04-09T09:46:44.591Z,6.38
2023-04-09T09:49:48.887Z,6.38
2023-04-09T09:52:54.802Z,7.25
2023-04-09T09:56:01.077Z,7.05
2023-04-09T09:59:08.803Z,7.20
2023-04-09T10:02:19.320Z,6.65
2023-04-09T10:05:26.840Z,6.57
2023-04-09T10:08:31.326Z,6.18
2023-04-09T10:11:37.910Z,7.80
2023-04-09T10:14:42.791Z,7.15
2023-04-09T10:17:46.221Z,7.15
2023-04-09T10:29:51.889Z,6.60
2023-04-09T10:32:55.027Z,6.88
2023-04-09T10:36:03.276Z,7.13
2023-04-09T10:39:13.606Z,6.82
2023-04-09T10:42:33.114Z,7.15
2023-04-09T10:45:45.819Z,7.20
2023-04-09T10:53:34.012Z,5.38
2023-04-09T10:56:36.639Z,7.05
2023-04-09T10:59:41.157Z,6.68
2023-04-09T11:03:11.662Z,6.80
2023-04-09T11:06:17.689Z,6.78
2023-04-09T11:09:20.208Z,7.43
2023-04-09T11:12:22.712Z,5.03
2023-04-09T11:15:25.398Z,6.72
2023-04-09T11:18:31.070Z,7.18
2023-04-09T11:21:35.889Z,6.53
2023-04-09T11:24:42.286Z,6.55
2023-04-09T11:27:47.014Z,7.45
2023-04-09T11:30:53.713Z,6.90
2023-04-09T11:33:57.703Z,6.78
2023-04-09T11:37:05.106Z,6.55
2023-04-09T11:40:08.971Z,6.13
2023-04-09T11:43:11.643Z,6.70
2023-04-09T11:46:15.335Z,5.13
2023-04-09T11:49:19.491Z,6.72
2023-04-09T11:52:22.121Z,6.30
2023-04-09T11:55:26.079Z,7.00
2023-04-09T11:58:28.497Z,6.80
2023-04-09T12:01:32.907Z,7.07
2023-04-09T12:04:37.201Z,6.43
2023-04-09T12:07:44.226Z,6.25
2023-04-09T12:10:54.684Z,6.93
2023-04-09T12:14:03.017Z,6.47
2023-04-09T12:17:05.789Z,6.22
2023-04-09T12:20:11.999Z,5.85
2023-04-09T12:23:14.883Z,4.70
2023-04-09T12:26:17.770Z,5.32
2023-04-09T12:29:23.102Z,4.82
2023-04-09T12:32:25.989Z,6.38
2023-04-09T12:35:30.158Z,6.20
2023-04-09T12:38:32.629Z,6.40
2023-04-09T12:41:35.315Z,6.13
2023-04-09T12:44:39.165Z,7.07
2023-04-09T12:47:41.871Z,6.35
2023-04-09T12:50:46.207Z,6.30
2023-04-09T12:53:48.738Z,5.93
2023-04-09T12:56:51.207Z,5.43
2023-04-09T12:59:53.796Z,5.50
2023-04-09T13:02:56.744Z,6.18
2023-04-09T13:06:01.049Z,5.97
2023-04-09T13:09:03.620Z,5.60
2023-04-09T13:12:06.478Z,6.57
2023-04-09T13:15:09.315Z,5.82
2023-04-09T13:18:12.208Z,6.43
2023-04-09T13:21:18.708Z,6.18
2023-04-09T13:24:21.514Z,6.03
2023-04-09T13:27:24.258Z,6.72
2023-04-09T13:30:26.853Z,6.95
2023-04-09T13:33:29.341Z,6.32
2023-04-09T13:36:33.501Z,6.13
2023-04-09T13:39:36.337Z,5.60
2023-04-09T13:42:39.266Z,6.03
2023-04-09T13:45:41.852Z,6.82
2023-04-09T13:48:44.567Z,6.57
2023-04-09T13:51:49.630Z,6.85
2023-04-09T13:54:53.476Z,6.97
2023-04-09T13:57:56.205Z,6.93
2023-04-09T14:00:59.188Z,5.90
2023-04-09T14:07:06.489Z,6.57
2023-04-09T14:10:09.930Z,6.78
2023-04-09T14:13:12.412Z,7.13
2023-04-09T14:16:15.691Z,6.60
2023-04-09T14:19:18.604Z,6.03
2023-04-09T14:22:22.437Z,7.63
2023-04-09T14:25:24.874Z,7.13
2023-04-09T14:28:27.342Z,6.75
2023-04-09T14:31:32.190Z,6.22
2023-04-09T14:34:34.812Z,6.90
2023-04-09T14:37:40.901Z,7.43
2023-04-09T14:40:43.650Z,7.43
2023-04-09T14:43:46.242Z,7.78
2023-04-09T14:46:48.954Z,7.22
2023-04-09T14:49:51.714Z,8.07
2023-04-09T14:52:55.663Z,7.25
2023-04-09T14:55:58.356Z,6.78
2023-04-09T14:59:00.964Z,6.85
2023-04-09T15:02:04.888Z,6.80
2023-04-09T15:05:08.664Z,7.20
2023-04-09T15:08:14.117Z,8.20
2023-04-09T15:11:17.237Z,9.13
2023-04-09T15:14:20.575Z,9.95
2023-04-09T15:17:23.322Z,9.20
2023-04-09T15:20:25.789Z,11.45
2023-04-09T15:23:33.543Z,11.00
2023-04-09T15:26:36.103Z,11.57
2023-04-09T15:29:38.668Z,11.80
2023-04-09T15:32:41.454Z,12.27
2023-04-09T15:35:44.054Z,12.80
2023-04-09T15:38:48.125Z,11.57
2023-04-09T15:41:51.144Z,12.30
2023-04-09T15:44:53.738Z,11.43
2023-04-09T15:47:56.545Z,11.50
2023-04-09T15:50:59.238Z,10.80
2023-04-09T15:54:03.194Z,10.85
2023-04-09T15:57:06.148Z,11.38
2023-04-09T16:00:13.404Z,11.80
2023-04-09T16:03:25.855Z,10.48
2023-04-09T16:06:31.569Z,10.43
2023-04-09T16:09:40.560Z,10.00
2023-04-09T16:12:43.226Z,9.18
2023-04-09T16:15:48.088Z,9.65
2023-04-09T16:18:57.570Z,9.40
2023-04-09T16:22:00.161Z,8.68
2023-04-09T16:25:11.863Z,8.95
2023-04-09T16:28:15.317Z,9.27
2023-04-09T16:34:20.948Z,9.38
2023-04-09T16:37:23.469Z,6.78
2023-04-09T16:40:27.565Z,8.55
2023-04-09T16:43:31.854Z,8.63
2023-04-09T16:46:34.499Z,9.73
2023-04-09T16:49:37.115Z,8.02
2023-04-09T16:52:40.179Z,8.40
2023-04-09T16:55:44.878Z,7.78
2023-04-09T16:58:47.372Z,8.57
2023-04-09T17:01:51.822Z,8.07
2023-04-09T17:04:55.162Z,8.05
2023-04-09T17:07:57.902Z,8.02
2023-04-09T17:11:05.017Z,8.32
2023-04-09T17:14:07.490Z,8.35
2023-04-09T17:17:10.082Z,7.93
2023-04-09T17:20:14.167Z,8.40
2023-04-09T17:23:16.704Z,8.40
2023-04-09T17:26:20.884Z,8.23
2023-04-09T17:29:23.815Z,8.25
2023-04-09T17:32:26.335Z,7.82
2023-04-09T17:35:28.999Z,8.35
2023-04-09T17:38:31.936Z,8.07
2023-04-09T17:41:36.603Z,7.55
2023-04-09T17:44:39.209Z,7.80
2023-04-09T17:47:42.043Z,6.95
2023-04-09T17:50:44.768Z,7.03
2023-04-09T17:53:47.498Z,7.55
2023-04-09T17:56:52.129Z,7.72
2023-04-09T17:59:54.726Z,7.35
2023-04-09T18:02:58.734Z,8.10
2023-04-09T18:06:01.578Z,7.85
2023-04-09T18:09:04.142Z,7.40
2023-04-09T18:12:08.490Z,6.80
2023-04-09T18:15:11.819Z,8.23
2023-04-09T18:18:14.381Z,7.47
2023-04-09T18:21:18.160Z,6.70
2023-04-09T18:24:20.950Z,6.32
2023-04-09T18:27:24.822Z,7.03
2023-04-09T18:30:27.395Z,7.18
2023-04-09T18:33:29.886Z,7.75
2023-04-09T18:36:32.354Z,7.28
2023-04-09T18:39:36.331Z,6.90
2023-04-09T18:42:40.683Z,6.82
2023-04-09T18:45:43.176Z,7.15
2023-04-09T18:48:46.984Z,7.30
2023-04-09T18:51:49.452Z,6.55
2023-04-09T18:54:51.929Z,6.50
2023-04-09T18:57:57.488Z,7.38
2023-04-09T19:01:00.919Z,6.72
2023-04-09T19:04:03.707Z,6.65
2023-04-09T19:07:06.663Z,6.18
2023-04-09T19:10:09.856Z,6.80
2023-04-09T19:13:13.776Z,6.60
2023-04-09T19:16:17.014Z,5.38
2023-04-09T19:19:19.631Z,7.18
2023-04-09T19:22:22.219Z,6.30
2023-04-09T19:25:27.464Z,6.63
2023-04-09T19:28:31.322Z,6.55
2023-04-09T19:31:34.087Z,6.50
2023-04-09T19:34:38.703Z,6.88
2023-04-09T19:37:41.205Z,6.75
2023-04-09T19:40:45.496Z,6.15
2023-04-09T19:44:13.064Z,6.18
2023-04-09T19:47:15.973Z,6.95
2023-04-09T19:50:20.239Z,7.15
2023-04-09T19:53:22.841Z,6.60
2023-04-09T19:56:25.952Z,6.80
2023-04-09T19:59:31.278Z,7.70
2023-04-09T20:02:33.999Z,6.55
2023-04-09T20:05:36.528Z,7.35
2023-04-09T20:08:39.344Z,6.70
2023-04-09T20:11:42.194Z,6.60
2023-04-09T20:14:47.059Z,6.82
2023-04-09T20:17:51.087Z,6.32
2023-04-09T20:20:54.459Z,7.28
2023-04-09T20:23:56.977Z,6.47
2023-04-09T20:26:59.978Z,7.00
2023-04-09T20:30:04.183Z,6.93
2023-04-09T20:33:07.186Z,5.38
2023-04-09T20:36:15.309Z,7.13
2023-04-09T20:39:18.337Z,7.20
2023-04-09T20:42:21.216Z,7.82
2023-04-09T20:45:25.550Z,7.25
2023-04-09T20:48:31.336Z,7.15
2023-04-09T20:51:33.965Z,7.80
2023-04-09T20:54:37.664Z,7.40
2023-04-09T20:57:40.413Z,7.78
2023-04-09T21:00:44.345Z,7.75
2023-04-09T21:03:47.238Z,7.65
2023-04-09T21:06:50.061Z,7.03
2023-04-09T21:09:52.619Z,7.88
2023-04-09T21:12:55.344Z,7.45
2023-04-09T21:16:00.086Z,7.43
2023-04-09T21:19:07.132Z,8.00
2023-04-09T21:22:10.192Z,7.40
2023-04-09T21:25:15.121Z,8.60
2023-04-09T21:28:18.023Z,6.15
2023-04-09T21:31:21.988Z,7.97
2023-04-09T21:34:30.123Z,8.13
2023-04-09T21:37:33.738Z,8.52
2023-04-09T21:40:36.326Z,7.88
2023-04-09T21:43:39.343Z,6.43
2023-04-09T21:46:43.486Z,6.88
2023-04-09T21:49:46.446Z,7.65
2023-04-09T21:52:49.192Z,8.02
2023-04-09T21:55:51.705Z,6.95
2023-04-09T21:58:54.713Z,8.38
2023-04-09T22:02:01.771Z,8.15
2023-04-09T22:05:04.848Z,8.00
2023-04-09T22:08:07.783Z,8.20
2023-04-09T22:11:10.472Z,7.85
2023-04-09T22:14:12.901Z,8.10
2023-04-09T22:17:17.512Z,6.38
2023-04-09T22:20:20.047Z,7.82
2023-04-09T22:23:23.021Z,8.30
2023-04-09T22:26:25.560Z,7.80
2023-04-09T22:29:28.618Z,8.07
2023-04-09T22:32:33.336Z,8.05
2023-04-09T22:35:36.378Z,8.10
2023-04-09T22:38:39.357Z,8.13
2023-04-09T22:41:42.143Z,7.47
2023-04-09T22:44:44.857Z,7.72
2023-04-09T22:47:49.253Z,7.70
2023-04-09T22:50:52.171Z,8.07
2023-04-09T22:53:54.615Z,6.10
2023-04-09T22:56:57.770Z,7.70
2023-04-09T23:00:00.530Z,7.95
2023-04-09T23:03:05.011Z,7.85
2023-04-09T23:06:07.817Z,8.02
2023-04-09T23:09:10.310Z,7.60
2023-04-09T23:12:12.867Z,7.63
2023-04-09T23:15:15.790Z,7.25
2023-04-09T23:18:19.828Z,5.95
2023-04-09T23:21:22.438Z,8.40
2023-04-09T23:24:24.976Z,7.40
2023-04-09T23:27:28.819Z,7.78
2023-04-09T23:30:32.173Z,7.55
2023-04-09T23:33:36.255Z,7.10
2023-04-09T23:36:38.836Z,7.63
2023-04-09T23:39:41.803Z,7.75
2023-04-09T23:42:44.692Z,7.38
2023-04-09T23:45:49.814Z,7.32
2023-04-09T23:48:54.152Z,7.55
2023-04-09T23:51:56.721Z,7.88
2023-04-09T23:55:00.501Z,7.47
2023-04-09T23:58:03.255Z,5.88
